Close sub menu
NASDAQ
NY-Nasdaq Composite 25067,801 -46,64 -0,19% (23:16)
Stijgers 1 dag
Dalers 1 dag
Indices 1 dag
Micron Technology Inc +6,3%
eBay +5,1%
Atlassian Corp +4,9%
Datadog +4,4%
GlobalFoundries +4,4%
Constellation Energy Corp +4,3%
Moderna +4,3%
Fortinet +3,4%
Zoom Communications Inc +3,1%
CrowdStrike Holdings +3,0%
Diamondback Energy +2,8%
Illumina +2,7%
Old Dominion Freight Line -6,6%
Advanced Micro Devices -5,3%
QUALCOMM -4,9%
Align Technology -3,9%
Enphase Energy -3,9%
Intel Corp -3,8%
Charter Communications -3,7%
lululemon athletica -3,4%
Rivian Automotive -3,4%
ASML Holding NV -2,9%
O'Reilly Automotive Inc -2,8%
Monster Beverage Corp -2,5%
AEX* 1.013,74+0,9%
Midkap* 1.045,43+0,5%
AMS Next 20®* 1.657,51+0,7%
FTSE100 10.281,40-0,8%
Dow Jones 48.941,90-1,1%
NASDAQ 25.067,801-0,2%
S&P500 7.200,75-0,4%
S&P Future 7.254,50+0,3%
BEL20** 5.352,180,0%
CAC 40** 7.976,12-1,7%
DAX 24.194,15+0,8%
* real time    ** slotkoers
NaamKoersVorige+/- %1 wk1 mndDit jaar 1 jaarTijd
Adobe 254,00 250,71 +1,3% +6,1% +4,6% -27,4% -33,3% 22:00
Advanced Micro Devices 341,49 360,55 -5,3% +2,1% +57,0% +59,5% +245,6% 22:00
Airbnb 138,86 141,68 -2,0% -1,6% +11,2% +2,3% +10,9% 22:00
Align Technology 171,90 178,93 -3,9% -6,9% +0,7% +10,1% -4,4% 22:00
Alphabet 379,64 383,31 -1,0% +8,9% +28,9% +21,0% +129,0% 22:00
Alphabet 383,25 385,69 -0,6% +9,4% +29,6% +22,4% +133,6% 22:00
Amazon.com 272,07 268,45 +1,3% +4,2% +29,7% +17,9% +43,2% 22:00
American Electric Power Company 134,64 136,93 -1,7% -0,3% +1,5% +16,8% +25,0% 22:00
Amgen 323,79 329,70 -1,8% -4,8% -6,9% -1,1% +15,1% 22:00
Analog Devices 397,18 397,69 -0,2% +1,2% +24,8% +46,5% +100,0% 22:00
Ansys 374,30 374,30 -- -- -4,7% +11,0% +15,2% 22:00
Apple 276,87 280,25 -1,2% +3,5% +8,2% +1,8% +34,8% 22:00
Applied Materials 391,45 389,10 +0,6% -3,3% +12,4% +52,3% +152,4% 22:00
ASML Holding NV 1.386,20 1.428,18 -2,9% -3,2% +5,2% +29,6% +100,8% 22:00
AstraZeneca PLC 194,94 194,94 0,0% -- +0,3% +112,1% +200,4% 00:00
Atlassian Corp 93,19 88,85 +4,9% +34,6% +36,5% -42,5% -55,3% 22:00
Autodesk 247,54 244,35 +1,3% +5,3% +4,0% -16,4% -11,6% 22:00
Automatic Data Processing 211,32 214,21 -1,3% +7,1% +3,6% -17,8% -30,4% 22:00
Baker Hughes Company 69,01 69,11 -0,1% +0,9% +14,3% +51,5% +86,0% 22:00
Biogen 187,21 187,05 +0,1% +3,6% +5,5% +6,4% +51,6% 22:00
Booking Holdings Inc. 165,57 169,63 -2,4% -6,7% -1,3% -22,7% -20,4% 22:00
Broadcom Inc. 416,54 421,24 -1,1% -0,4% +32,5% +20,4% +104,5% 22:00
Cadence Design Systems 349,65 340,94 +2,5% +3,9% +25,4% +11,9% +13,5% 22:00
Charter Communications 165,32 171,74 -3,7% -5,3% -24,8% -20,8% -57,1% 22:00
Cintas Corp 166,89 169,61 -1,6% -4,1% -4,3% -11,3% -21,1% 22:00
Cisco Systems 92,63 91,87 +0,8% +5,0% +17,2% +20,3% +56,1% 22:00
Cognizant Technology Solutions Corp 51,86 52,43 -1,1% -5,1% -17,1% -37,5% -33,3% 22:00
Comcast Corp 27,08 27,17 -0,3% -1,6% -3,0% -9,4% -21,4% 22:00
Constellation Energy Corp 321,05 307,81 +4,3% +1,9% +17,7% -9,1% +29,7% 22:00
Copart 33,29 33,27 +0,1% +0,3% -0,3% -15,0% -45,6% 22:00
CoStar Group 35,38 34,72 +1,9% -2,4% -11,4% -47,4% -54,6% 22:00
Costco Wholesale Corp 1.012,79 1.011,70 +0,1% +1,5% -0,2% +17,4% +0,4% 22:00
CrowdStrike Holdings 469,24 455,64 +3,0% +3,2% +17,6% +0,1% +6,5% 22:00
CSX Corp 44,72 45,10 -0,8% -1,6% +8,5% +23,4% +55,8% 22:00
Datadog 146,69 140,53 +4,4% +10,6% +21,9% +7,9% +39,7% 22:00
DexCom 60,04 61,34 -2,1% -2,2% -3,5% -9,5% -26,4% 22:00
Diamondback Energy 213,69 207,77 +2,8% +8,8% +10,2% +42,1% +56,2% 22:00
Dollar Tree 94,04 94,68 -0,7% -4,0% -13,3% -23,6% +11,6% 22:00
eBay 109,33 104,04 +5,1% +9,0% +16,1% +25,5% +59,4% 22:00
Electronic Arts 201,82 202,06 -0,1% -0,3% -0,9% -1,2% +33,6% 22:00
Enphase Energy 32,54 33,85 -3,9% -7,7% -6,8% +1,5% -28,6% 22:00
Exelon Corp 46,63 46,50 +0,2% +0,1% -5,5% +7,0% +0,3% 22:00
Fastenal Co 44,88 44,91 -0,1% -0,9% -3,1% +11,8% +9,3% 22:00
Fortinet 89,24 86,29 +3,4% +4,2% +8,2% +12,4% -16,0% 22:00
Gilead Sciences 132,73 131,64 +0,8% +3,9% -5,0% +8,1% +28,0% 22:00
GlobalFoundries 67,75 64,91 +4,4% +12,3% +54,9% +94,0% +86,1% 22:00
Honeywell International 209,59 212,50 -1,4% -1,2% -8,7% +7,4% -2,1% 22:00
IDEXX Laboratories 563,12 567,82 -0,8% -2,1% -1,1% -16,8% +19,3% 22:00
Illumina 139,37 135,77 +2,7% +8,4% +9,4% +6,3% +79,0% 22:00
Intel Corp 95,77 99,61 -3,8% +12,7% +90,1% +159,5% +364,4% 22:00
Intuit 407,05 399,03 +2,0% +4,4% -3,7% -38,6% -35,6% 22:00
Intuitive Surgical 452,19 457,79 -1,2% -4,0% 0,0% -20,2% -14,6% 22:00
JD.com 30,04 29,96 +0,3% +1,0% +5,5% +4,7% -12,8% 22:00
Keurig Dr Pepper 28,87 29,10 -0,8% +2,6% +14,1% +3,1% -16,1% 22:00
KLA Corp 1.713,32 1.725,59 -0,7% -9,8% +13,0% +41,0% +145,4% 22:00
Kraft Heinz Company (The) 22,43 22,48 -0,3% +2,3% -1,6% -7,5% -21,7% 22:00
Lam Research Corp 258,64 256,64 +0,8% -0,3% +18,4% +51,1% +247,1% 22:00
Lucid Group Inc 6,69 6,56 +2,1% +12,8% -32,8% -36,7% -73,6% 22:00
lululemon athletica 128,97 133,58 -3,4% -12,2% -17,2% -37,9% -53,5% 22:00
Marriott International 347,24 355,04 -2,2% -3,7% +4,6% +11,9% +39,2% 22:00
Marvell Technology 163,52 164,92 -0,8% +3,4% +52,7% +92,4% +162,3% 22:00
MercadoLibre 1.813,53 1.850,05 -2,0% -1,4% +5,7% -10,0% -20,5% 22:00
Meta Platforms 610,46 608,75 +0,3% -10,0% +6,2% -7,5% +2,3% 22:00
Microchip Technology 95,28 93,95 +1,4% +9,7% +45,2% +49,5% +98,9% 22:00
Micron Technology Inc 576,36 542,21 +6,3% +9,9% +57,4% +101,9% +614,0% 22:00
Microsoft Corp 413,69 414,20 -0,1% -2,6% +10,8% -14,5% -5,0% 22:00
Moderna 47,30 45,35 +4,3% -2,9% -3,9% +60,4% +71,3% 22:00
Mondelez International 61,38 61,38 0,0% +6,9% +6,7% +14,0% -9,4% 22:00
Monster Beverage Corp 75,23 77,12 -2,5% -2,1% +4,0% -1,9% +25,3% 22:00
Netflix Inc. 91,04 92,06 -1,1% -0,4% -7,7% -2,9% -21,3% 22:00
NVIDIA Corp 198,54 198,35 +0,1% -8,3% +11,9% +6,5% +73,5% 22:00
NXP Semiconductors NV 290,76 295,24 -1,5% +22,8% +49,5% +34,0% +54,5% 22:00
Old Dominion Freight Line 192,23 205,81 -6,6% -12,8% -2,9% +22,6% +21,6% 22:00
O'Reilly Automotive Inc 94,01 96,65 -2,8% +2,2% +2,8% +3,1% +0,3% 22:00
PACCAR 114,37 116,04 -1,4% -10,1% -3,3% +4,4% +27,2% 22:00
Palo Alto Networks Inc 184,56 181,09 +1,9% +0,9% +13,1% +0,2% -1,7% 22:00
Paychex 92,48 93,02 -0,6% +2,8% +0,9% -17,6% -38,3% 22:00
PayPal Holdings 50,42 50,43 -0,1% +1,3% +11,2% -13,6% -25,0% 22:00
PDD Holdings 97,80 99,73 -1,9% -0,7% -3,0% -13,7% -11,8% 22:00
Pepsico 154,60 157,41 -1,8% +0,3% -1,5% +7,7% +15,6% 22:00
QUALCOMM 168,38 177,04 -4,9% +12,1% +32,8% -1,6% +20,4% 22:00
Regeneron Pharmaceuticals 709,21 701,42 +1,1% -4,7% -6,9% -8,1% +17,1% 22:00
Rivian Automotive 14,50 15,02 -3,4% -13,3% -5,8% -26,4% +4,8% 22:00
Ross Stores 226,06 228,84 -1,2% 0,0% +2,8% +25,5% +60,9% 22:00
Seagen 228,89 228,74 -- -- +7,2% +78,1% +78,3% 22:00
SiriusXM Holdings Inc 26,76 27,22 -1,7% +0,8% +12,4% +33,8% +30,7% 22:00
Starbucks Corp 104,97 105,91 -0,9% +7,2% +16,1% +24,7% +23,9% 22:00
Synopsys 497,50 488,84 +1,8% -0,2% +25,8% +5,9% +5,3% 22:00
Tesla 392,57 390,75 +0,5% +3,7% +8,9% -12,7% +36,7% 22:00
Texas Instruments 280,89 280,95 0,0% +4,2% +44,1% +61,9% +70,7% 22:00
T-Mobile US 194,42 196,06 -0,8% +6,4% -3,5% -4,2% -21,9% 22:00
Verisk Analytics 178,69 180,95 -1,3% +2,2% -3,5% -20,1% -39,2% 22:00
Vertex Pharmaceuticals 429,85 424,02 +1,4% +0,9% -2,0% -5,2% -14,2% 22:00
Walgreens Boots Alliance 11,98 11,98 -- -- +0,5% +28,4% +40,6% 22:00
Warner Bros Discovery 26,97 26,97 0,0% +0,6% -1,3% -6,4% +215,8% 22:00
Workday 127,89 126,96 +0,7% +8,5% -3,3% -40,5% -48,6% 22:00
Xcel Energy 81,17 82,56 -1,7% +2,2% +0,5% +9,9% +14,7% 22:00
Zoom Communications Inc 106,63 103,45 +3,1% +17,4% +29,5% +23,6% +36,3% 22:00
Zscaler 142,20 139,78 +1,7% +6,0% +2,6% -36,8% -38,3% 22:00
Powered by

Schakel browser notificaties in

Schakel browser notificaties in om meldingen te ontvangen op dit apparaat.

Browser notificaties inschakelen

U heeft browser notificaties voor fd.nl eerder geweigerd. Ga naar browser instellingen en sta browser notificaties toe voor fd.nl. De precieze handelingen zijn afhankelijk van uw browser.

U volgt een onderwerp

Wanneer deze zoekterm in een artikel voorkomt, zult u deze terugvinden in Mijn nieuws onder ‘Eurobonds’.

Wilt u via de FD App meldingen ontvangen voor dit onderwerp?

Wilt u via de FD App meldingen ontvangen voor dit onderwerp?

Ons privacy statement is van toepassing.

Meldingen

Wanneer deze zoekterm in een artikel voorkomt, zult u deze terugvinden in Mijn nieuws onder ‘Eurobonds’.

Wilt u via de FD App meldingen ontvangen voor dit onderwerp?

Wilt u via de FD App meldingen ontvangen voor dit onderwerp?